Rehobeth, Alabama
Current Conditions -  °F | °C
As of 7:53 PM on Monday 24 Nov 2014 (Local Time) from KDHN Reporting Station
Few Clouds Few Clouds  
Wind Chill: 20°   Ceiling: Unl
Heat Index: 20°   Visibility: 10mi
Dew Point: 18°   Wind: 6mph
Humidity: 90%   Direction: 210°SSW
Pressure: 29.97"   Gusts: NA
Location:  31.271°N, 85.3923°W
Report Text: KDHN 250153Z 21005KT 10SM FEW013 20/18 A2997 RMK AO2 SLP143 T02000183
Loading
Personal Weather Stations






























Interactive Weather Map New forecast layout! Learn more

10-Day Weather Forecast

Advertisements
Track Severe Weather on mobile